首页
METAR-TAF:

METAR-TAF

机场 :

Pellston Regional Airport of Emmet County

Pellston, 密歇根州, 美国

纬度: 45-34-15N, 经度: 084-47-48W, 海拔: 220米

当前天气观测

该预报发布于9分钟前的14:54 UTC
风速10节,风向西转西南,有时为20节阵风
温度 -2°C
湿度 74%
气压 1029 hPa
能見度: 16.1公里
少量云层高于1900英尺

METAR: KPLN 211454Z AUTO 25010G20KT 10SM FEW019 M02/M06 A3039 RMK AO2 SLP303 T10221061 55006

时间: 10:03 (15:03 UTC)

预报

该预报发布于3小时和31分钟前的11:32 UTC
预报有效从21日的 12点(UTC)到 22日的 12点(UTC)
风速5节,风向西转西南
能見度: 10公里
散云层高于18000英尺
从 21日的 1500点(UTC)
风速10节,风向西转西南,有时为19节阵风
能見度: 10公里
多云层高于4000英尺
从 22日的 0000点(UTC)
风速10节,风向西南,有时为20节阵风
能見度: 10公里
散云层高于20000英尺
从 22日的 1100点(UTC)
风速9节,风向西南
能見度: 10公里
多云层高于25000英尺

TAF: KPLN 211132Z 2112/2212 25005KT P6SM SCT180 FM211500 25010G19KT P6SM BKN040 FM220000 23010G20KT P6SM SCT200 WS020/25040KT FM221100 23009KT P6SM BKN250 WS020/24040KT

超过4000个机场的气象观测和天气预报(METAR&TAF报告)。

可查询的气象台以黄色和红色小点在地图上表示。

将鼠标移到小点上方,可查看气象台名称。

然后点击查看天气观测和预报。

如需切换地图:点击带黑十字的绿色按钮放大地图;点击带横线的绿色按钮缩小地图;或者点击绿色箭头查看邻近地区的地图。


METAR-TAF: